sensor_id;sensor_type;location;lat;lon;timestamp;pressure;altitude;pressure_sealevel;temperature;humidity
47726;BME280;33483;48.294;16.388;2023-07-31T00:00:30;99468.03;;;17.02;100.00
47726;BME280;33483;48.294;16.388;2023-07-31T00:03:17;99457.22;;;16.99;100.00
47726;BME280;33483;48.294;16.388;2023-07-31T00:05:45;99460.03;;;16.99;100.00
47726;BME280;33483;48.294;16.388;2023-07-31T00:08:12;99464.56;;;16.94;100.00
47726;BME280;33483;48.294;16.388;2023-07-31T00:10:39;99466.16;;;17.05;100.00
47726;BME280;33483;48.294;16.388;2023-07-31T00:13:06;99468.59;;;17.01;100.00
47726;BME280;33483;48.294;16.388;2023-07-31T00:15:35;99472.16;;;17.01;100.00
47726;BME280;33483;48.294;16.388;2023-07-31T00:18:02;99466.16;;;17.05;100.00
47726;BME280;33483;48.294;16.388;2023-07-31T00:20:29;99466.22;;;16.97;100.00
47726;BME280;33483;48.294;16.388;2023-07-31T00:22:56;99462.47;;;16.95;100.00
47726;BME280;33483;48.294;16.388;2023-07-31T00:25:23;99468.53;;;16.91;100.00
47726;BME280;33483;48.294;16.388;2023-07-31T00:27:51;99467.25;;;16.84;100.00
47726;BME280;33483;48.294;16.388;2023-07-31T00:30:18;99465.78;;;16.83;100.00
47726;BME280;33483;48.294;16.388;2023-07-31T00:32:45;99461.47;;;16.82;100.00
47726;BME280;33483;48.294;16.388;2023-07-31T00:35:13;99473.16;;;16.71;100.00
47726;BME280;33483;48.294;16.388;2023-07-31T00:37:45;99455.44;;;16.69;100.00
47726;BME280;33483;48.294;16.388;2023-07-31T00:40:12;99448.19;;;16.66;100.00
47726;BME280;33483;48.294;16.388;2023-07-31T00:42:41;99445.56;;;16.68;100.00
47726;BME280;33483;48.294;16.388;2023-07-31T00:45:08;99443.34;;;16.66;100.00
47726;BME280;33483;48.294;16.388;2023-07-31T00:47:35;99447.97;;;16.71;100.00
47726;BME280;33483;48.294;16.388;2023-07-31T00:50:03;99449.34;;;16.63;100.00
47726;BME280;33483;48.294;16.388;2023-07-31T00:52:32;99459.84;;;16.55;100.00
47726;BME280;33483;48.294;16.388;2023-07-31T00:54:59;99465.50;;;16.47;100.00
47726;BME280;33483;48.294;16.388;2023-07-31T00:57:30;99459.53;;;16.43;100.00
47726;BME280;33483;48.294;16.388;2023-07-31T01:00:02;99454.50;;;16.42;100.00
47726;BME280;33483;48.294;16.388;2023-07-31T01:02:30;99454.72;;;16.36;100.00
47726;BME280;33483;48.294;16.388;2023-07-31T01:04:58;99454.50;;;16.42;100.00
47726;BME280;33483;48.294;16.388;2023-07-31T01:10:04;99456.72;;;16.43;100.00
47726;BME280;33483;48.294;16.388;2023-07-31T01:12:38;99468.31;;;16.40;100.00
47726;BME280;33483;48.294;16.388;2023-07-31T01:15:07;99458.66;;;16.33;100.00
47726;BME280;33483;48.294;16.388;2023-07-31T01:17:38;99471.13;;;16.40;100.00
47726;BME280;33483;48.294;16.388;2023-07-31T01:20:26;99469.47;;;16.37;100.00
47726;BME280;33483;48.294;16.388;2023-07-31T01:28:17;99472.00;;;16.42;100.00
47726;BME280;33483;48.294;16.388;2023-07-31T01:30:49;99471.47;;;16.44;100.00
47726;BME280;33483;48.294;16.388;2023-07-31T01:33:17;99467.78;;;16.34;100.00
47726;BME280;33483;48.294;16.388;2023-07-31T01:35:45;99471.91;;;16.33;100.00
47726;BME280;33483;48.294;16.388;2023-07-31T01:38:14;99465.00;;;16.34;100.00
47726;BME280;33483;48.294;16.388;2023-07-31T01:40:41;99454.03;;;16.28;100.00
47726;BME280;33483;48.294;16.388;2023-07-31T01:43:09;99452.91;;;16.31;100.00
47726;BME280;33483;48.294;16.388;2023-07-31T01:45:38;99459.56;;;16.36;100.00
47726;BME280;33483;48.294;16.388;2023-07-31T01:48:07;99462.94;;;16.34;100.00
47726;BME280;33483;48.294;16.388;2023-07-31T01:50:37;99461.63;;;16.35;100.00
47726;BME280;33483;48.294;16.388;2023-07-31T01:53:06;99461.06;;;16.37;100.00
47726;BME280;33483;48.294;16.388;2023-07-31T01:55:34;99449.88;;;16.37;100.00
47726;BME280;33483;48.294;16.388;2023-07-31T01:58:01;99456.44;;;16.32;100.00
47726;BME280;33483;48.294;16.388;2023-07-31T02:00:29;99460.72;;;16.33;100.00
47726;BME280;33483;48.294;16.388;2023-07-31T02:02:58;99469.47;;;16.37;100.00
47726;BME280;33483;48.294;16.388;2023-07-31T02:05:26;99466.09;;;16.38;100.00
47726;BME280;33483;48.294;16.388;2023-07-31T02:07:53;99469.22;;;16.42;100.00
47726;BME280;33483;48.294;16.388;2023-07-31T02:10:20;99476.31;;;16.43;100.00
47726;BME280;33483;48.294;16.388;2023-07-31T02:12:47;99475.97;;;16.39;100.00
47726;BME280;33483;48.294;16.388;2023-07-31T02:15:15;99471.34;;;16.34;100.00
47726;BME280;33483;48.294;16.388;2023-07-31T02:17:43;99484.41;;;16.32;100.00
47726;BME280;33483;48.294;16.388;2023-07-31T02:20:11;99483.09;;;16.33;100.00
47726;BME280;33483;48.294;16.388;2023-07-31T02:22:38;99483.88;;;16.26;100.00
47726;BME280;33483;48.294;16.388;2023-07-31T02:25:06;99480.41;;;16.18;100.00
47726;BME280;33483;48.294;16.388;2023-07-31T02:27:32;99487.84;;;16.15;100.00
47726;BME280;33483;48.294;16.388;2023-07-31T02:30:00;99491.78;;;16.12;100.00
47726;BME280;33483;48.294;16.388;2023-07-31T02:32:27;99490.69;;;16.08;100.00
47726;BME280;33483;48.294;16.388;2023-07-31T02:34:55;99483.97;;;16.11;100.00
47726;BME280;33483;48.294;16.388;2023-07-31T02:37:22;99498.88;;;16.06;100.00
47726;BME280;33483;48.294;16.388;2023-07-31T02:39:50;99483.97;;;16.11;100.00
47726;BME280;33483;48.294;16.388;2023-07-31T02:42:18;99494.59;;;16.12;100.00
47726;BME280;33483;48.294;16.388;2023-07-31T02:44:48;99490.50;;;16.06;100.00
47726;BME280;33483;48.294;16.388;2023-07-31T02:47:16;99485.72;;;15.99;100.00
47726;BME280;33483;48.294;16.388;2023-07-31T02:49:44;99500.78;;;16.03;100.00
47726;BME280;33483;48.294;16.388;2023-07-31T02:52:12;99494.44;;;16.03;100.00
47726;BME280;33483;48.294;16.388;2023-07-31T02:54:39;99492.91;;;16.09;100.00
47726;BME280;33483;48.294;16.388;2023-07-31T02:57:08;99480.28;;;16.01;100.00
47726;BME280;33483;48.294;16.388;2023-07-31T02:59:36;99501.53;;;16.04;100.00
47726;BME280;33483;48.294;16.388;2023-07-31T03:02:05;99496.66;;;16.04;100.00
47726;BME280;33483;48.294;16.388;2023-07-31T03:04:33;99497.78;;;16.09;100.00
47726;BME280;33483;48.294;16.388;2023-07-31T03:07:03;99494.00;;;16.14;100.00
47726;BME280;33483;48.294;16.388;2023-07-31T03:09:33;99499.25;;;16.10;100.00
47726;BME280;33483;48.294;16.388;2023-07-31T03:12:01;99510.63;;;16.12;100.00
47726;BME280;33483;48.294;16.388;2023-07-31T03:14:34;99506.88;;;16.09;100.00
47726;BME280;33483;48.294;16.388;2023-07-31T03:17:01;99508.97;;;16.09;100.00
47726;BME280;33483;48.294;16.388;2023-07-31T03:19:30;99514.88;;;16.13;100.00
47726;BME280;33483;48.294;16.388;2023-07-31T03:21:57;99522.16;;;16.16;100.00
47726;BME280;33483;48.294;16.388;2023-07-31T03:24:26;99523.06;;;16.18;100.00
47726;BME280;33483;48.294;16.388;2023-07-31T03:26:53;99518.41;;;16.21;100.00
47726;BME280;33483;48.294;16.388;2023-07-31T03:29:24;99520.63;;;16.22;100.00
47726;BME280;33483;48.294;16.388;2023-07-31T03:31:52;99534.22;;;16.26;100.00
47726;BME280;33483;48.294;16.388;2023-07-31T03:34:19;99526.19;;;16.30;100.00
47726;BME280;33483;48.294;16.388;2023-07-31T03:36:47;99530.50;;;16.23;100.00
47726;BME280;33483;48.294;16.388;2023-07-31T03:39:15;99534.97;;;16.26;100.00
47726;BME280;33483;48.294;16.388;2023-07-31T03:41:42;99537.59;;;16.24;100.00
47726;BME280;33483;48.294;16.388;2023-07-31T03:44:09;99543.53;;;16.28;100.00
47726;BME280;33483;48.294;16.388;2023-07-31T03:46:36;99548.91;;;16.34;100.00
47726;BME280;33483;48.294;16.388;2023-07-31T03:49:06;99536.41;;;16.35;100.00
47726;BME280;33483;48.294;16.388;2023-07-31T03:51:33;99538.44;;;16.42;100.00
47726;BME280;33483;48.294;16.388;2023-07-31T03:54:02;99544.91;;;16.44;100.00
47726;BME280;33483;48.294;16.388;2023-07-31T03:56:29;99542.13;;;16.52;100.00
47726;BME280;33483;48.294;16.388;2023-07-31T03:58:59;99548.00;;;16.63;100.00
47726;BME280;33483;48.294;16.388;2023-07-31T04:01:27;99550.19;;;16.72;100.00
47726;BME280;33483;48.294;16.388;2023-07-31T04:03:55;99547.53;;;16.82;100.00
47726;BME280;33483;48.294;16.388;2023-07-31T04:06:22;99549.13;;;16.93;100.00
47726;BME280;33483;48.294;16.388;2023-07-31T04:08:50;99546.59;;;17.04;100.00
47726;BME280;33483;48.294;16.388;2023-07-31T04:11:19;99552.16;;;17.12;100.00
47726;BME280;33483;48.294;16.388;2023-07-31T04:13:47;99552.47;;;17.16;100.00
47726;BME280;33483;48.294;16.388;2023-07-31T04:16:14;99552.41;;;17.23;100.00
47726;BME280;33483;48.294;16.388;2023-07-31T04:18:42;99548.97;;;17.32;100.00
47726;BME280;33483;48.294;16.388;2023-07-31T04:21:09;99544.78;;;17.41;100.00
47726;BME280;33483;48.294;16.388;2023-07-31T04:23:37;99544.94;;;17.43;100.00
47726;BME280;33483;48.294;16.388;2023-07-31T04:26:04;99546.97;;;17.50;100.00
47726;BME280;33483;48.294;16.388;2023-07-31T04:28:31;99542.44;;;17.54;100.00
47726;BME280;33483;48.294;16.388;2023-07-31T04:30:59;99547.22;;;17.61;100.00
47726;BME280;33483;48.294;16.388;2023-07-31T04:33:26;99540.63;;;17.66;100.00
47726;BME280;33483;48.294;16.388;2023-07-31T04:35:53;99538.31;;;17.72;100.00
47726;BME280;33483;48.294;16.388;2023-07-31T04:38:21;99541.78;;;17.80;100.00
47726;BME280;33483;48.294;16.388;2023-07-31T04:40:48;99540.94;;;17.87;100.00
47726;BME280;33483;48.294;16.388;2023-07-31T04:43:16;99542.03;;;17.92;100.00
47726;BME280;33483;48.294;16.388;2023-07-31T04:45:47;99546.94;;;18.01;100.00
47726;BME280;33483;48.294;16.388;2023-07-31T04:48:18;99546.53;;;18.05;100.00
47726;BME280;33483;48.294;16.388;2023-07-31T04:50:47;99543.81;;;18.14;100.00
47726;BME280;33483;48.294;16.388;2023-07-31T04:53:16;99547.84;;;18.21;100.00
47726;BME280;33483;48.294;16.388;2023-07-31T04:55:43;99554.09;;;18.29;100.00
47726;BME280;33483;48.294;16.388;2023-07-31T04:58:11;99556.97;;;18.38;100.00
47726;BME280;33483;48.294;16.388;2023-07-31T05:00:38;99559.13;;;18.47;100.00
47726;BME280;33483;48.294;16.388;2023-07-31T05:03:08;99571.47;;;18.61;100.00
47726;BME280;33483;48.294;16.388;2023-07-31T05:05:38;99558.03;;;18.69;100.00
47726;BME280;33483;48.294;16.388;2023-07-31T05:08:05;99562.38;;;18.80;100.00
47726;BME280;33483;48.294;16.388;2023-07-31T05:10:33;99552.94;;;18.85;100.00
47726;BME280;33483;48.294;16.388;2023-07-31T05:13:01;99550.06;;;19.02;100.00
47726;BME280;33483;48.294;16.388;2023-07-31T05:15:28;99557.53;;;19.26;100.00
47726;BME280;33483;48.294;16.388;2023-07-31T05:17:56;99566.00;;;19.36;100.00
47726;BME280;33483;48.294;16.388;2023-07-31T05:20:24;99561.47;;;19.59;100.00
47726;BME280;33483;48.294;16.388;2023-07-31T05:22:51;99564.75;;;19.75;100.00
47726;BME280;33483;48.294;16.388;2023-07-31T05:25:21;99564.44;;;20.38;100.00
47726;BME280;33483;48.294;16.388;2023-07-31T05:27:51;99568.66;;;21.17;100.00
47726;BME280;33483;48.294;16.388;2023-07-31T05:30:18;99576.47;;;20.78;100.00
47726;BME280;33483;48.294;16.388;2023-07-31T05:32:46;99577.22;;;20.29;100.00
47726;BME280;33483;48.294;16.388;2023-07-31T05:35:18;99578.09;;;20.03;100.00
47726;BME280;33483;48.294;16.388;2023-07-31T05:37:46;99571.41;;;19.89;100.00
47726;BME280;33483;48.294;16.388;2023-07-31T05:40:16;99572.47;;;19.84;100.00
47726;BME280;33483;48.294;16.388;2023-07-31T05:42:44;99573.50;;;19.88;100.00
47726;BME280;33483;48.294;16.388;2023-07-31T05:45:11;99579.72;;;20.25;100.00
47726;BME280;33483;48.294;16.388;2023-07-31T05:47:41;99577.22;;;20.79;100.00
47726;BME280;33483;48.294;16.388;2023-07-31T05:50:08;99583.19;;;21.13;100.00
47726;BME280;33483;48.294;16.388;2023-07-31T05:52:35;99579.00;;;21.24;100.00
47726;BME280;33483;48.294;16.388;2023-07-31T05:55:03;99585.13;;;21.72;100.00
47726;BME280;33483;48.294;16.388;2023-07-31T05:57:30;99588.06;;;21.95;100.00
47726;BME280;33483;48.294;16.388;2023-07-31T05:59:57;99582.66;;;21.88;100.00
47726;BME280;33483;48.294;16.388;2023-07-31T06:02:25;99583.91;;;21.96;100.00
47726;BME280;33483;48.294;16.388;2023-07-31T06:04:56;99581.81;;;21.97;100.00
47726;BME280;33483;48.294;16.388;2023-07-31T06:07:24;99585.22;;;21.74;100.00
47726;BME280;33483;48.294;16.388;2023-07-31T06:09:51;99583.13;;;21.84;100.00
47726;BME280;33483;48.294;16.388;2023-07-31T06:12:18;99576.38;;;21.68;100.00
47726;BME280;33483;48.294;16.388;2023-07-31T06:14:47;99588.44;;;21.59;100.00
47726;BME280;33483;48.294;16.388;2023-07-31T06:17:15;99588.38;;;21.48;100.00
47726;BME280;33483;48.294;16.388;2023-07-31T06:19:43;99583.41;;;21.58;100.00
47726;BME280;33483;48.294;16.388;2023-07-31T06:22:10;99589.66;;;21.56;100.00
47726;BME280;33483;48.294;16.388;2023-07-31T06:24:37;99584.41;;;21.62;100.00
47726;BME280;33483;48.294;16.388;2023-07-31T06:27:07;99588.72;;;21.42;100.00
47726;BME280;33483;48.294;16.388;2023-07-31T06:29:34;99593.13;;;21.45;100.00
47726;BME280;33483;48.294;16.388;2023-07-31T06:32:02;99592.28;;;21.64;100.00
47726;BME280;33483;48.294;16.388;2023-07-31T06:34:30;99587.91;;;21.51;100.00
47726;BME280;33483;48.294;16.388;2023-07-31T06:36:59;99582.53;;;21.76;100.00
47726;BME280;33483;48.294;16.388;2023-07-31T06:39:26;99583.59;;;21.81;100.00
47726;BME280;33483;48.294;16.388;2023-07-31T06:41:54;99581.28;;;21.89;100.00
47726;BME280;33483;48.294;16.388;2023-07-31T06:44:21;99578.41;;;22.31;100.00
47726;BME280;33483;48.294;16.388;2023-07-31T06:46:48;99587.63;;;22.31;100.00
47726;BME280;33483;48.294;16.388;2023-07-31T06:49:15;99587.19;;;22.91;100.00
47726;BME280;33483;48.294;16.388;2023-07-31T06:51:43;99582.53;;;23.30;100.00
47726;BME280;33483;48.294;16.388;2023-07-31T06:54:13;99587.91;;;23.72;98.18
47726;BME280;33483;48.294;16.388;2023-07-31T06:56:40;99582.66;;;24.03;90.87
47726;BME280;33483;48.294;16.388;2023-07-31T06:59:08;99583.78;;;24.23;87.97
47726;BME280;33483;48.294;16.388;2023-07-31T07:01:35;99587.69;;;25.19;73.85
47726;BME280;33483;48.294;16.388;2023-07-31T07:04:03;99592.28;;;26.36;64.26
47726;BME280;33483;48.294;16.388;2023-07-31T07:06:31;99593.41;;;27.52;55.09
47726;BME280;33483;48.294;16.388;2023-07-31T07:08:58;99604.16;;;28.72;48.57
47726;BME280;33483;48.294;16.388;2023-07-31T07:11:25;99607.25;;;29.16;43.73
47726;BME280;33483;48.294;16.388;2023-07-31T07:13:52;99608.03;;;30.18;41.54
47726;BME280;33483;48.294;16.388;2023-07-31T07:16:20;99616.84;;;30.24;39.65
47726;BME280;33483;48.294;16.388;2023-07-31T07:18:47;99614.34;;;30.79;38.37
47726;BME280;33483;48.294;16.388;2023-07-31T07:21:29;99622.13;;;31.48;37.59
47726;BME280;33483;48.294;16.388;2023-07-31T07:23:57;99620.63;;;30.31;38.19
47726;BME280;33483;48.294;16.388;2023-07-31T07:26:27;99617.13;;;30.77;37.40
47726;BME280;33483;48.294;16.388;2023-07-31T07:28:54;99620.44;;;30.46;36.83
47726;BME280;33483;48.294;16.388;2023-07-31T07:31:22;99611.75;;;30.66;36.91
47726;BME280;33483;48.294;16.388;2023-07-31T07:33:49;99620.06;;;31.27;34.46
47726;BME280;33483;48.294;16.388;2023-07-31T07:36:17;99609.75;;;31.18;34.99
47726;BME280;33483;48.294;16.388;2023-07-31T07:38:44;99617.06;;;31.23;35.69
47726;BME280;33483;48.294;16.388;2023-07-31T07:41:11;99611.41;;;30.77;36.09
47726;BME280;33483;48.294;16.388;2023-07-31T07:43:38;99610.09;;;30.80;35.88
47726;BME280;33483;48.294;16.388;2023-07-31T07:46:06;99610.13;;;30.37;37.95
47726;BME280;33483;48.294;16.388;2023-07-31T07:48:33;99607.06;;;30.31;36.53
47726;BME280;33483;48.294;16.388;2023-07-31T07:51:01;99592.69;;;29.86;38.38
47726;BME280;33483;48.294;16.388;2023-07-31T07:53:28;99598.94;;;30.02;36.51
47726;BME280;33483;48.294;16.388;2023-07-31T07:55:55;99601.03;;;29.21;38.11
47726;BME280;33483;48.294;16.388;2023-07-31T07:58:22;99598.19;;;28.49;40.11
47726;BME280;33483;48.294;16.388;2023-07-31T08:00:52;99595.28;;;29.02;39.75
47726;BME280;33483;48.294;16.388;2023-07-31T08:03:19;99597.31;;;29.97;39.64
47726;BME280;33483;48.294;16.388;2023-07-31T08:05:47;99592.94;;;29.72;38.34
47726;BME280;33483;48.294;16.388;2023-07-31T08:08:20;99591.69;;;28.82;40.01
47726;BME280;33483;48.294;16.388;2023-07-31T08:10:47;99591.06;;;29.03;38.77
47726;BME280;33483;48.294;16.388;2023-07-31T08:13:17;99599.28;;;29.12;37.65
47726;BME280;33483;48.294;16.388;2023-07-31T08:15:45;99599.06;;;27.67;41.06
47726;BME280;33483;48.294;16.388;2023-07-31T08:18:12;99603.59;;;27.90;41.63
47726;BME280;33483;48.294;16.388;2023-07-31T08:20:40;99605.38;;;28.85;38.13
47726;BME280;33483;48.294;16.388;2023-07-31T08:23:07;99596.19;;;29.65;36.82
47726;BME280;33483;48.294;16.388;2023-07-31T08:25:37;99605.00;;;30.55;35.50
47726;BME280;33483;48.294;16.388;2023-07-31T08:28:05;99601.91;;;31.42;33.13
47726;BME280;33483;48.294;16.388;2023-07-31T08:30:33;99606.78;;;32.16;32.96
47726;BME280;33483;48.294;16.388;2023-07-31T08:33:00;99601.69;;;32.42;32.04
47726;BME280;33483;48.294;16.388;2023-07-31T08:35:29;99593.59;;;32.64;32.86
47726;BME280;33483;48.294;16.388;2023-07-31T08:37:59;99591.78;;;32.79;32.20
47726;BME280;33483;48.294;16.388;2023-07-31T08:40:27;99596.56;;;32.68;30.67
47726;BME280;33483;48.294;16.388;2023-07-31T08:42:55;99598.84;;;33.41;30.04
47726;BME280;33483;48.294;16.388;2023-07-31T08:45:31;99603.28;;;31.66;31.05
47726;BME280;33483;48.294;16.388;2023-07-31T08:47:59;99602.34;;;30.40;32.07
47726;BME280;33483;48.294;16.388;2023-07-31T08:50:28;99595.13;;;29.74;33.59
47726;BME280;33483;48.294;16.388;2023-07-31T08:52:55;99587.84;;;29.12;35.21
47726;BME280;33483;48.294;16.388;2023-07-31T08:55:25;99583.69;;;29.74;34.16
47726;BME280;33483;48.294;16.388;2023-07-31T08:57:52;99585.53;;;29.26;35.18
47726;BME280;33483;48.294;16.388;2023-07-31T09:00:22;99590.31;;;30.88;33.29
47726;BME280;33483;48.294;16.388;2023-07-31T09:02:56;99584.63;;;30.90;32.10
47726;BME280;33483;48.294;16.388;2023-07-31T09:05:26;99585.75;;;31.80;30.25
47726;BME280;33483;48.294;16.388;2023-07-31T09:07:54;99575.47;;;32.26;30.60
47726;BME280;33483;48.294;16.388;2023-07-31T09:10:22;99588.53;;;32.92;29.48
47726;BME280;33483;48.294;16.388;2023-07-31T09:12:52;99579.19;;;33.28;29.15
47726;BME280;33483;48.294;16.388;2023-07-31T09:15:20;99575.25;;;33.09;28.23
47726;BME280;33483;48.294;16.388;2023-07-31T09:18:04;99576.59;;;33.06;29.01
47726;BME280;33483;48.294;16.388;2023-07-31T09:20:35;99578.97;;;32.84;28.39
47726;BME280;33483;48.294;16.388;2023-07-31T09:23:07;99571.94;;;32.91;28.02
47726;BME280;33483;48.294;16.388;2023-07-31T09:25:35;99578.00;;;33.41;28.51
47726;BME280;33483;48.294;16.388;2023-07-31T09:28:03;99573.81;;;33.83;28.98
47726;BME280;33483;48.294;16.388;2023-07-31T09:30:32;99575.78;;;33.73;26.68
47726;BME280;33483;48.294;16.388;2023-07-31T09:33:10;99583.44;;;33.98;27.19
47726;BME280;33483;48.294;16.388;2023-07-31T09:35:38;99583.00;;;34.14;27.45
47726;BME280;33483;48.294;16.388;2023-07-31T09:38:08;99573.50;;;34.05;26.46
47726;BME280;33483;48.294;16.388;2023-07-31T09:40:37;99575.47;;;33.57;26.76
47726;BME280;33483;48.294;16.388;2023-07-31T09:43:05;99577.91;;;33.72;26.21
47726;BME280;33483;48.294;16.388;2023-07-31T09:45:36;99571.22;;;33.60;26.23
47726;BME280;33483;48.294;16.388;2023-07-31T09:48:17;99572.88;;;32.68;26.20
47726;BME280;33483;48.294;16.388;2023-07-31T09:50:46;99553.19;;;32.86;26.67
47726;BME280;33483;48.294;16.388;2023-07-31T09:53:16;99562.38;;;32.19;27.05
47726;BME280;33483;48.294;16.388;2023-07-31T09:55:44;99566.63;;;32.77;27.13
47726;BME280;33483;48.294;16.388;2023-07-31T09:58:13;99548.03;;;32.80;27.16
47726;BME280;33483;48.294;16.388;2023-07-31T10:00:43;99544.88;;;32.07;28.60
47726;BME280;33483;48.294;16.388;2023-07-31T10:03:15;99544.00;;;32.30;28.53
47726;BME280;33483;48.294;16.388;2023-07-31T10:05:46;99551.84;;;31.45;28.35
47726;BME280;33483;48.294;16.388;2023-07-31T10:08:15;99536.91;;;31.76;29.85
47726;BME280;33483;48.294;16.388;2023-07-31T10:10:44;99537.41;;;31.41;29.02
47726;BME280;33483;48.294;16.388;2023-07-31T10:13:14;99544.00;;;31.45;29.47
47726;BME280;33483;48.294;16.388;2023-07-31T10:15:42;99540.16;;;31.62;28.76
47726;BME280;33483;48.294;16.388;2023-07-31T10:18:10;99541.88;;;30.97;29.89
47726;BME280;33483;48.294;16.388;2023-07-31T10:20:38;99528.22;;;29.81;31.19
47726;BME280;33483;48.294;16.388;2023-07-31T10:23:06;99530.53;;;29.06;32.93
47726;BME280;33483;48.294;16.388;2023-07-31T10:25:34;99524.41;;;29.14;34.20
47726;BME280;33483;48.294;16.388;2023-07-31T10:28:02;99517.91;;;29.52;32.41
47726;BME280;33483;48.294;16.388;2023-07-31T10:30:30;99511.38;;;30.13;31.74
47726;BME280;33483;48.294;16.388;2023-07-31T10:32:59;99507.59;;;30.51;31.76
47726;BME280;33483;48.294;16.388;2023-07-31T10:35:29;99503.28;;;30.50;30.37
47726;BME280;33483;48.294;16.388;2023-07-31T10:38:03;99509.69;;;30.49;30.81
47726;BME280;33483;48.294;16.388;2023-07-31T10:40:35;99508.31;;;30.99;30.39
47726;BME280;33483;48.294;16.388;2023-07-31T10:43:02;99502.66;;;31.01;30.35
47726;BME280;33483;48.294;16.388;2023-07-31T10:45:34;99494.16;;;31.31;32.51
47726;BME280;33483;48.294;16.388;2023-07-31T10:48:04;99499.09;;;31.03;31.07
47726;BME280;33483;48.294;16.388;2023-07-31T10:50:54;99488.59;;;31.11;31.86
47726;BME280;33483;48.294;16.388;2023-07-31T10:53:23;99487.44;;;31.20;30.86
47726;BME280;33483;48.294;16.388;2023-07-31T10:55:53;99483.66;;;30.41;31.40
47726;BME280;33483;48.294;16.388;2023-07-31T10:58:26;99479.91;;;30.34;33.54
47726;BME280;33483;48.294;16.388;2023-07-31T11:00:56;99481.22;;;30.55;32.11
47726;BME280;33483;48.294;16.388;2023-07-31T11:03:40;99476.44;;;30.85;30.67
47726;BME280;33483;48.294;16.388;2023-07-31T11:06:09;99466.59;;;30.92;30.43
47726;BME280;33483;48.294;16.388;2023-07-31T11:08:41;99473.44;;;31.32;30.77
47726;BME280;33483;48.294;16.388;2023-07-31T11:11:09;99462.56;;;30.77;30.85
47726;BME280;33483;48.294;16.388;2023-07-31T11:16:10;99455.38;;;29.19;34.78
47726;BME280;33483;48.294;16.388;2023-07-31T11:18:38;99454.56;;;28.97;34.96
47726;BME280;33483;48.294;16.388;2023-07-31T11:21:06;99449.81;;;28.27;35.03
47726;BME280;33483;48.294;16.388;2023-07-31T11:23:33;99451.13;;;28.81;34.95
47726;BME280;33483;48.294;16.388;2023-07-31T11:26:00;99450.09;;;29.53;35.03
47726;BME280;33483;48.294;16.388;2023-07-31T11:28:31;99443.34;;;29.64;33.83
47726;BME280;33483;48.294;16.388;2023-07-31T11:30:58;99431.75;;;29.38;34.66
47726;BME280;33483;48.294;16.388;2023-07-31T11:33:28;99434.88;;;29.25;34.26
47726;BME280;33483;48.294;16.388;2023-07-31T11:35:56;99427.41;;;29.16;34.04
47726;BME280;33483;48.294;16.388;2023-07-31T11:40:59;99434.38;;;29.95;34.56
47726;BME280;33483;48.294;16.388;2023-07-31T11:43:30;99423.47;;;29.90;34.30
47726;BME280;33483;48.294;16.388;2023-07-31T11:45:58;99425.22;;;30.01;36.00
47726;BME280;33483;48.294;16.388;2023-07-31T11:50:57;99424.31;;;29.94;33.40
47726;BME280;33483;48.294;16.388;2023-07-31T11:53:26;99418.22;;;29.82;33.71
47726;BME280;33483;48.294;16.388;2023-07-31T11:55:54;99417.16;;;29.93;33.66
47726;BME280;33483;48.294;16.388;2023-07-31T11:58:22;99415.69;;;29.27;33.46
47726;BME280;33483;48.294;16.388;2023-07-31T12:00:50;99411.88;;;29.21;34.00
47726;BME280;33483;48.294;16.388;2023-07-31T12:03:18;99393.97;;;28.99;35.95
47726;BME280;33483;48.294;16.388;2023-07-31T12:05:47;99388.41;;;28.24;36.07
47726;BME280;33483;48.294;16.388;2023-07-31T12:08:14;99385.06;;;27.40;36.42
47726;BME280;33483;48.294;16.388;2023-07-31T12:10:43;99383.63;;;27.23;36.49
47726;BME280;33483;48.294;16.388;2023-07-31T12:13:19;99377.84;;;27.37;37.41
47726;BME280;33483;48.294;16.388;2023-07-31T12:15:48;99377.41;;;27.80;37.09
47726;BME280;33483;48.294;16.388;2023-07-31T12:18:16;99368.84;;;28.34;37.21
47726;BME280;33483;48.294;16.388;2023-07-31T12:20:47;99368.56;;;28.85;36.33
47726;BME280;33483;48.294;16.388;2023-07-31T12:23:15;99362.63;;;28.79;36.42
47726;BME280;33483;48.294;16.388;2023-07-31T12:25:42;99366.50;;;27.92;35.74
47726;BME280;33483;48.294;16.388;2023-07-31T12:28:11;99356.75;;;28.16;36.68
47726;BME280;33483;48.294;16.388;2023-07-31T12:30:40;99354.28;;;28.07;36.28
47726;BME280;33483;48.294;16.388;2023-07-31T12:33:13;99354.03;;;27.83;35.87
47726;BME280;33483;48.294;16.388;2023-07-31T12:35:51;99346.16;;;27.82;35.79
47726;BME280;33483;48.294;16.388;2023-07-31T12:38:19;99339.41;;;27.73;37.17
47726;BME280;33483;48.294;16.388;2023-07-31T12:40:47;99339.88;;;27.85;35.42
47726;BME280;33483;48.294;16.388;2023-07-31T12:43:15;99339.38;;;28.08;35.08
47726;BME280;33483;48.294;16.388;2023-07-31T12:45:42;99327.25;;;28.27;35.64
47726;BME280;33483;48.294;16.388;2023-07-31T12:48:09;99322.78;;;28.22;35.52
47726;BME280;33483;48.294;16.388;2023-07-31T12:50:37;99323.06;;;28.30;35.75
47726;BME280;33483;48.294;16.388;2023-07-31T12:53:06;99327.84;;;28.43;34.73
47726;BME280;33483;48.294;16.388;2023-07-31T12:55:33;99326.66;;;28.70;34.18
47726;BME280;33483;48.294;16.388;2023-07-31T12:58:04;99320.44;;;28.36;34.38
47726;BME280;33483;48.294;16.388;2023-07-31T13:00:31;99315.69;;;28.23;35.42
47726;BME280;33483;48.294;16.388;2023-07-31T13:02:59;99304.50;;;28.10;36.50
47726;BME280;33483;48.294;16.388;2023-07-31T13:05:27;99303.69;;;28.07;36.62
47726;BME280;33483;48.294;16.388;2023-07-31T13:07:55;99291.63;;;27.89;36.36